createdAt,value
2018-01-20T00:01:49.193Z,2.60
2018-01-20T00:04:18.241Z,2.70
2018-01-20T00:06:46.499Z,2.70
2018-01-20T00:12:22.815Z,2.70
2018-01-20T00:14:51.109Z,2.80
2018-01-20T00:17:19.404Z,2.80
2018-01-20T00:19:50.799Z,2.80
2018-01-20T00:22:23.799Z,2.80
2018-01-20T00:24:57.916Z,2.70
2018-01-20T00:27:26.650Z,2.80
2018-01-20T00:29:54.924Z,2.70
2018-01-20T00:32:23.179Z,2.70
2018-01-20T00:34:51.442Z,2.70
2018-01-20T00:37:19.748Z,2.70
2018-01-20T00:39:47.984Z,2.70
2018-01-20T00:42:16.245Z,2.70
2018-01-20T00:44:44.520Z,2.70
2018-01-20T00:47:13.571Z,2.70
2018-01-20T00:49:42.248Z,2.80
2018-01-20T00:52:10.492Z,2.80
2018-01-20T00:54:38.765Z,2.80
2018-01-20T00:57:07.759Z,2.90
2018-01-20T00:59:36.038Z,2.90
2018-01-20T01:02:04.308Z,2.90
2018-01-20T01:04:33.338Z,2.90
2018-01-20T01:07:01.606Z,2.90
2018-01-20T01:09:29.868Z,2.90
2018-01-20T01:11:58.149Z,3.00
2018-01-20T01:14:26.385Z,3.00
2018-01-20T01:16:55.434Z,2.90
2018-01-20T01:19:23.716Z,2.90
2018-01-20T01:21:51.977Z,3.00
2018-01-20T01:24:20.233Z,2.90
2018-01-20T01:26:48.489Z,2.90
2018-01-20T01:29:17.525Z,2.80
2018-01-20T01:31:45.775Z,2.80
2018-01-20T01:34:14.790Z,2.90
2018-01-20T01:36:43.086Z,2.90
2018-01-20T01:39:12.065Z,2.90
2018-01-20T01:41:40.317Z,2.80
2018-01-20T01:44:09.334Z,2.90
2018-01-20T01:46:37.569Z,2.90
2018-01-20T01:49:06.187Z,2.90
2018-01-20T01:51:34.441Z,2.90
2018-01-20T01:54:03.458Z,2.90
2018-01-20T01:56:31.938Z,2.80
2018-01-20T01:59:00.996Z,2.90
2018-01-20T02:01:30.009Z,2.80
2018-01-20T02:03:59.039Z,2.80
2018-01-20T02:06:27.309Z,2.70
2018-01-20T02:08:55.596Z,2.60
2018-01-20T02:11:23.897Z,2.50
2018-01-20T02:13:52.128Z,2.40
2018-01-20T02:16:21.150Z,2.20
2018-01-20T02:18:49.435Z,2.20
2018-01-20T02:21:17.705Z,2.30
2018-01-20T02:23:46.747Z,2.20
2018-01-20T02:26:14.948Z,2.20
2018-01-20T02:28:43.332Z,2.20
2018-01-20T02:31:12.342Z,2.00
2018-01-20T02:33:40.594Z,2.00
2018-01-20T02:36:09.606Z,2.20
2018-01-20T02:38:38.333Z,2.20
2018-01-20T02:41:06.597Z,2.30
2018-01-20T02:43:34.832Z,2.20
2018-01-20T02:46:03.864Z,2.20
2018-01-20T02:48:32.097Z,2.20
2018-01-20T02:51:00.332Z,2.30
2018-01-20T02:53:28.614Z,2.30
2018-01-20T02:55:56.884Z,2.30
2018-01-20T02:58:25.151Z,2.00
2018-01-20T03:00:53.382Z,2.10
2018-01-20T03:03:22.420Z,2.10
2018-01-20T03:05:50.651Z,2.00
2018-01-20T03:08:19.676Z,2.00
2018-01-20T03:10:47.919Z,2.00
2018-01-20T03:13:16.967Z,2.00
2018-01-20T03:15:45.205Z,2.00
2018-01-20T03:18:14.253Z,2.20
2018-01-20T03:20:42.510Z,2.20
2018-01-20T03:23:10.765Z,2.20
2018-01-20T03:25:38.990Z,2.20
2018-01-20T03:28:07.265Z,2.10
2018-01-20T03:30:35.526Z,2.10
2018-01-20T03:33:03.794Z,2.10
2018-01-20T03:35:32.962Z,2.20
2018-01-20T03:38:02.003Z,2.30
2018-01-20T03:40:30.272Z,2.30
2018-01-20T03:42:58.500Z,2.30
2018-01-20T03:45:27.513Z,2.40
2018-01-20T03:47:56.514Z,2.40
2018-01-20T03:50:25.547Z,2.40
2018-01-20T03:52:53.785Z,2.40
2018-01-20T03:55:22.061Z,2.40
2018-01-20T03:57:51.075Z,2.50
2018-01-20T04:00:19.337Z,2.50
2018-01-20T04:02:47.614Z,2.50
2018-01-20T04:05:15.852Z,2.50
2018-01-20T04:07:45.631Z,2.60
2018-01-20T04:10:15.391Z,2.50
2018-01-20T04:12:44.445Z,2.50
2018-01-20T04:15:12.703Z,2.50
2018-01-20T04:17:40.999Z,2.50
2018-01-20T04:20:09.251Z,2.50
2018-01-20T04:22:38.073Z,2.50
2018-01-20T04:25:06.353Z,2.50
2018-01-20T04:27:34.613Z,2.40
2018-01-20T04:30:02.877Z,2.30
2018-01-20T04:32:31.144Z,2.40
2018-01-20T04:34:59.387Z,2.30
2018-01-20T04:37:27.626Z,2.40
2018-01-20T04:39:55.885Z,2.40
2018-01-20T04:42:24.123Z,2.40
2018-01-20T04:44:52.370Z,2.40
2018-01-20T04:47:20.659Z,2.40
2018-01-20T04:49:48.888Z,2.30
2018-01-20T04:52:17.162Z,2.40
2018-01-20T04:54:45.474Z,2.40
2018-01-20T04:57:14.084Z,2.40
2018-01-20T04:59:43.085Z,2.50
2018-01-20T05:02:11.379Z,2.50
2018-01-20T05:04:40.389Z,2.50
2018-01-20T05:07:08.647Z,2.40
2018-01-20T05:09:36.967Z,2.40
2018-01-20T05:12:05.223Z,2.40
2018-01-20T05:14:34.230Z,2.50
2018-01-20T05:17:02.473Z,2.50
2018-01-20T05:19:31.503Z,2.50
2018-01-20T05:21:59.737Z,2.50
2018-01-20T05:24:28.764Z,2.50
2018-01-20T05:26:56.989Z,2.50
2018-01-20T05:29:25.248Z,2.60
2018-01-20T05:31:53.489Z,2.50
2018-01-20T05:34:21.730Z,2.50
2018-01-20T05:36:51.510Z,2.50
2018-01-20T05:39:19.805Z,2.50
2018-01-20T05:41:48.044Z,2.60
2018-01-20T05:44:16.310Z,2.50
2018-01-20T05:46:44.566Z,2.60
2018-01-20T05:49:13.569Z,2.60
2018-01-20T05:51:42.598Z,2.50
2018-01-20T05:54:10.854Z,2.50
2018-01-20T05:56:39.103Z,2.60
2018-01-20T05:59:09.809Z,2.50
2018-01-20T06:01:38.054Z,2.50
2018-01-20T06:04:06.317Z,2.50
2018-01-20T06:06:35.308Z,2.50
2018-01-20T06:09:03.600Z,2.50
2018-01-20T06:11:31.849Z,2.50
2018-01-20T06:14:00.872Z,2.60
2018-01-20T06:16:29.133Z,2.60
2018-01-20T06:18:57.389Z,2.70
2018-01-20T06:21:26.410Z,2.70
2018-01-20T06:23:54.677Z,2.60
2018-01-20T06:26:24.059Z,2.70
2018-01-20T06:28:52.307Z,2.70
2018-01-20T06:31:21.173Z,2.70
2018-01-20T06:33:49.416Z,2.60
2018-01-20T06:36:18.462Z,2.60
2018-01-20T06:38:46.771Z,2.60
2018-01-20T06:41:15.021Z,2.70
2018-01-20T06:43:43.802Z,2.70
2018-01-20T06:46:12.081Z,2.80
2018-01-20T06:48:40.321Z,2.70
2018-01-20T06:51:10.369Z,2.70
2018-01-20T06:53:38.637Z,2.70
2018-01-20T06:56:06.888Z,2.70
2018-01-20T06:58:35.325Z,2.80
2018-01-20T07:01:03.615Z,2.70
2018-01-20T07:03:31.875Z,2.60
2018-01-20T07:06:00.116Z,2.50
2018-01-20T07:08:28.405Z,2.50
2018-01-20T07:10:56.653Z,2.50
2018-01-20T07:13:25.706Z,2.40
2018-01-20T07:15:53.949Z,2.40
2018-01-20T07:18:22.213Z,2.30
2018-01-20T07:20:51.053Z,2.30
2018-01-20T07:23:19.353Z,2.30
2018-01-20T07:25:47.564Z,2.30
2018-01-20T07:28:15.821Z,2.30
2018-01-20T07:30:44.842Z,2.30
2018-01-20T07:33:13.089Z,2.30
2018-01-20T07:35:42.841Z,2.30
2018-01-20T07:38:11.092Z,2.30
2018-01-20T07:40:39.371Z,2.30
2018-01-20T07:43:08.432Z,2.30
2018-01-20T07:45:36.698Z,2.30
2018-01-20T07:48:04.942Z,2.30
2018-01-20T07:50:33.220Z,2.30
2018-01-20T07:53:01.479Z,2.40
2018-01-20T07:55:30.528Z,2.30
2018-01-20T07:57:58.753Z,2.30
2018-01-20T08:00:27.790Z,2.30
2018-01-20T08:02:56.010Z,2.30
2018-01-20T08:05:25.048Z,2.40
2018-01-20T08:07:53.283Z,2.30
2018-01-20T08:10:22.319Z,2.40
2018-01-20T08:12:50.733Z,2.40
2018-01-20T08:15:18.972Z,2.40
2018-01-20T08:17:47.246Z,2.50
2018-01-20T08:20:15.490Z,2.50
2018-01-20T08:22:44.534Z,2.60
2018-01-20T08:25:12.773Z,2.60
2018-01-20T08:27:41.811Z,2.80
2018-01-20T08:30:10.182Z,2.80
2018-01-20T08:32:38.369Z,2.90
2018-01-20T08:35:06.625Z,2.90
2018-01-20T08:37:34.899Z,2.90
2018-01-20T08:40:03.182Z,2.90
2018-01-20T08:42:31.507Z,2.90
2018-01-20T08:44:59.763Z,2.90
2018-01-20T08:47:27.995Z,2.90
2018-01-20T08:49:57.020Z,3.00
2018-01-20T08:52:26.518Z,3.00
2018-01-20T08:54:54.774Z,3.00
2018-01-20T08:57:23.781Z,3.20
2018-01-20T08:59:52.039Z,3.10
2018-01-20T09:02:21.060Z,3.20
2018-01-20T09:04:50.104Z,3.30
2018-01-20T09:07:18.309Z,3.30
2018-01-20T09:09:46.576Z,3.30
2018-01-20T09:12:14.904Z,3.40
2018-01-20T09:14:43.143Z,3.40
2018-01-20T09:17:12.411Z,3.60
2018-01-20T09:19:40.661Z,3.60
2018-01-20T09:22:08.911Z,3.60
2018-01-20T09:24:37.383Z,3.70
2018-01-20T09:27:05.630Z,3.70
2018-01-20T09:29:34.693Z,3.80
2018-01-20T09:32:02.916Z,3.80
2018-01-20T09:34:31.905Z,3.90
2018-01-20T09:37:00.941Z,4.00
2018-01-20T09:39:29.220Z,4.00
2018-01-20T09:41:57.754Z,4.00
2018-01-20T09:44:26.825Z,4.30
2018-01-20T09:46:55.110Z,4.20
2018-01-20T09:49:23.384Z,4.40
2018-01-20T09:51:51.732Z,4.40
2018-01-20T09:54:19.904Z,4.40
2018-01-20T09:56:48.167Z,4.30
2018-01-20T09:59:16.467Z,4.10
2018-01-20T10:01:44.703Z,4.10
2018-01-20T10:04:12.997Z,4.10
2018-01-20T10:06:42.074Z,4.00
2018-01-20T10:09:10.361Z,4.00
2018-01-20T10:11:38.614Z,4.10
2018-01-20T10:14:06.881Z,4.10
2018-01-20T10:16:35.135Z,4.10
2018-01-20T10:19:03.375Z,4.10
2018-01-20T10:21:32.403Z,4.20
2018-01-20T10:24:00.672Z,4.20
2018-01-20T10:26:28.901Z,4.20
2018-01-20T10:28:57.953Z,4.30
2018-01-20T10:31:26.524Z,4.30
2018-01-20T10:33:54.762Z,4.40
2018-01-20T10:36:23.806Z,4.50
2018-01-20T10:38:52.044Z,4.50
2018-01-20T10:41:20.280Z,4.50
2018-01-20T10:43:50.091Z,4.60
2018-01-20T10:46:18.342Z,4.60
2018-01-20T10:48:46.605Z,4.70
2018-01-20T10:51:15.354Z,4.70
2018-01-20T10:53:44.421Z,4.90
2018-01-20T10:56:12.694Z,4.90
2018-01-20T10:58:40.964Z,5.00
2018-01-20T11:01:09.210Z,5.00
2018-01-20T11:03:38.213Z,5.00
2018-01-20T11:06:06.504Z,5.00
2018-01-20T11:08:35.550Z,5.00
2018-01-20T11:11:03.835Z,5.00
2018-01-20T11:13:32.889Z,4.90
2018-01-20T11:16:01.170Z,4.90
2018-01-20T11:18:29.463Z,4.90
2018-01-20T11:20:57.718Z,4.80
2018-01-20T11:23:25.991Z,4.80
2018-01-20T11:25:54.237Z,4.80
2018-01-20T11:28:23.282Z,5.00
2018-01-20T11:30:51.599Z,5.00
2018-01-20T11:33:20.613Z,4.90
2018-01-20T11:35:48.959Z,4.90
2018-01-20T11:38:17.225Z,4.80
2018-01-20T11:40:45.515Z,4.70
2018-01-20T11:43:13.777Z,4.80
2018-01-20T11:45:42.075Z,4.90
2018-01-20T11:48:10.361Z,4.80
2018-01-20T11:50:38.577Z,4.80
2018-01-20T11:53:06.862Z,4.80
2018-01-20T11:55:35.125Z,4.80
2018-01-20T11:58:03.387Z,4.70
2018-01-20T12:00:31.721Z,4.70
2018-01-20T12:03:00.116Z,4.80
2018-01-20T12:05:28.360Z,4.70
2018-01-20T12:07:56.627Z,4.70
2018-01-20T12:10:24.890Z,4.70
2018-01-20T12:12:53.204Z,4.70
2018-01-20T12:15:21.450Z,4.80
2018-01-20T12:17:49.743Z,4.90
2018-01-20T12:20:17.965Z,5.00
2018-01-20T12:22:47.086Z,5.10
2018-01-20T12:25:16.087Z,5.20
2018-01-20T12:27:45.152Z,5.30
2018-01-20T12:30:13.421Z,5.30
2018-01-20T12:32:41.710Z,5.30
2018-01-20T12:35:11.449Z,5.40
2018-01-20T12:37:39.723Z,5.40
2018-01-20T12:40:08.760Z,5.30
2018-01-20T12:42:37.059Z,5.30
2018-01-20T12:45:05.324Z,5.30
2018-01-20T12:47:33.540Z,5.20
2018-01-20T12:50:02.574Z,5.10
2018-01-20T12:52:30.874Z,5.10
2018-01-20T12:54:59.165Z,5.10
2018-01-20T12:57:27.403Z,5.20
2018-01-20T12:59:55.676Z,5.30
2018-01-20T13:02:23.948Z,5.20
2018-01-20T13:04:52.279Z,5.20
2018-01-20T13:07:20.526Z,5.10
2018-01-20T13:09:50.321Z,5.20
2018-01-20T13:12:18.577Z,5.20
2018-01-20T13:14:46.846Z,5.10
2018-01-20T13:17:16.136Z,5.20
2018-01-20T13:19:45.268Z,5.10
2018-01-20T13:22:13.905Z,5.10
2018-01-20T13:24:42.591Z,5.10
2018-01-20T13:27:11.617Z,5.00
2018-01-20T13:29:41.377Z,5.10
2018-01-20T13:32:09.610Z,5.10
2018-01-20T13:34:38.650Z,5.00
2018-01-20T13:37:06.894Z,5.00
2018-01-20T13:39:35.122Z,5.10
2018-01-20T13:42:03.505Z,5.20
2018-01-20T13:44:31.751Z,5.20
2018-01-20T13:46:59.981Z,5.20
2018-01-20T13:49:29.029Z,5.10
2018-01-20T13:51:57.315Z,5.10
2018-01-20T13:54:25.586Z,5.00
2018-01-20T13:56:53.873Z,5.00
2018-01-20T13:59:22.129Z,4.90
2018-01-20T14:01:50.391Z,4.90
2018-01-20T14:04:19.419Z,4.80
2018-01-20T14:06:47.682Z,4.80
2018-01-20T14:09:15.939Z,4.80
2018-01-20T14:11:44.182Z,4.80
2018-01-20T14:14:13.204Z,4.90
2018-01-20T14:16:41.494Z,4.90
2018-01-20T14:19:10.473Z,4.90
2018-01-20T14:21:38.749Z,4.80
2018-01-20T14:24:07.045Z,4.90
2018-01-20T14:26:35.294Z,4.90
2018-01-20T14:29:04.420Z,4.70
2018-01-20T14:31:32.691Z,4.70
2018-01-20T14:34:00.917Z,4.80
2018-01-20T14:36:29.191Z,4.80
2018-01-20T14:38:57.454Z,4.80
2018-01-20T14:41:25.724Z,4.90
2018-01-20T14:43:54.032Z,4.90
2018-01-20T14:46:22.288Z,4.90
2018-01-20T14:48:50.541Z,4.80
2018-01-20T14:51:19.598Z,4.70
2018-01-20T14:53:48.654Z,4.70
2018-01-20T14:56:16.939Z,4.60
2018-01-20T14:58:45.206Z,4.70
2018-01-20T15:01:13.464Z,4.70
2018-01-20T15:03:42.725Z,4.80
2018-01-20T15:06:11.605Z,4.70
2018-01-20T15:08:39.910Z,4.70
2018-01-20T15:11:08.962Z,4.60
2018-01-20T15:13:37.212Z,4.60
2018-01-20T15:16:05.816Z,4.60
2018-01-20T15:18:35.045Z,4.60
2018-01-20T15:21:03.325Z,4.50
2018-01-20T15:23:31.652Z,4.50
2018-01-20T15:25:59.919Z,4.40
2018-01-20T15:28:28.233Z,4.30
2018-01-20T15:30:56.527Z,4.30
2018-01-20T15:33:26.652Z,4.40
2018-01-20T15:35:55.682Z,4.30
2018-01-20T15:38:24.691Z,4.20
2018-01-20T15:40:52.961Z,4.20
2018-01-20T15:43:21.230Z,4.20
2018-01-20T15:45:49.510Z,4.10
2018-01-20T15:48:17.795Z,4.10
2018-01-20T15:50:46.966Z,4.00
2018-01-20T15:53:15.987Z,3.90
2018-01-20T15:55:44.272Z,3.90
2018-01-20T15:58:12.593Z,3.90
2018-01-20T16:00:40.826Z,3.90
2018-01-20T16:03:10.001Z,3.90
2018-01-20T16:05:39.026Z,3.80
2018-01-20T16:08:07.287Z,3.80
2018-01-20T16:10:35.676Z,3.80
2018-01-20T16:13:03.946Z,3.80
2018-01-20T16:15:32.259Z,3.80
2018-01-20T16:18:00.549Z,3.80
2018-01-20T16:20:28.824Z,3.80
2018-01-20T16:22:57.087Z,3.80
2018-01-20T16:25:25.706Z,3.90
2018-01-20T16:27:54.823Z,3.70
2018-01-20T16:30:23.997Z,3.70
2018-01-20T16:32:53.006Z,3.70
2018-01-20T16:35:22.011Z,3.70
2018-01-20T16:37:51.062Z,3.70
2018-01-20T16:40:19.336Z,3.70
2018-01-20T16:42:47.607Z,3.60
2018-01-20T16:45:16.800Z,3.60
2018-01-20T16:47:45.095Z,3.60
2018-01-20T16:50:13.488Z,3.60
2018-01-20T16:52:41.716Z,3.60
2018-01-20T16:55:09.998Z,3.60
2018-01-20T16:57:38.323Z,3.60
2018-01-20T17:00:06.630Z,3.60
2018-01-20T17:02:34.850Z,3.60
2018-01-20T17:05:13.134Z,3.60
2018-01-20T17:07:42.251Z,3.50
2018-01-20T17:10:11.256Z,3.50
2018-01-20T17:12:39.493Z,3.50
2018-01-20T17:15:07.785Z,3.50
2018-01-20T17:17:36.054Z,3.60
2018-01-20T17:20:04.369Z,3.60
2018-01-20T17:22:32.657Z,3.50
2018-01-20T17:25:01.754Z,3.40
2018-01-20T17:27:30.064Z,3.50
2018-01-20T17:29:58.305Z,3.40
2018-01-20T17:32:26.608Z,3.40
2018-01-20T17:34:54.893Z,3.40
2018-01-20T17:37:23.958Z,3.40
2018-01-20T17:39:52.206Z,3.40
2018-01-20T17:42:20.517Z,3.40
2018-01-20T17:44:48.793Z,3.40
2018-01-20T17:47:18.012Z,3.40
2018-01-20T17:49:47.758Z,3.40
2018-01-20T17:52:16.030Z,3.40
2018-01-20T17:54:45.008Z,3.40
2018-01-20T17:57:14.063Z,3.40
2018-01-20T17:59:42.415Z,3.40
2018-01-20T18:02:10.674Z,3.50
2018-01-20T18:04:38.946Z,3.50
2018-01-20T18:07:07.236Z,3.50
2018-01-20T18:09:36.328Z,3.50
2018-01-20T18:12:05.397Z,3.40
2018-01-20T18:14:35.349Z,3.40
2018-01-20T18:17:03.692Z,3.40
2018-01-20T18:19:32.788Z,3.50
2018-01-20T18:22:01.015Z,3.50
2018-01-20T18:24:29.316Z,3.50
2018-01-20T18:26:57.600Z,3.50
2018-01-20T18:29:27.532Z,3.50
2018-01-20T18:31:57.106Z,3.50
2018-01-20T18:34:25.371Z,3.50
2018-01-20T18:36:53.667Z,3.50
2018-01-20T18:39:21.982Z,3.50
2018-01-20T18:41:50.989Z,3.50
2018-01-20T18:44:20.061Z,3.50
2018-01-20T18:46:49.301Z,3.50
2018-01-20T18:49:17.713Z,3.50
2018-01-20T18:51:46.092Z,3.50
2018-01-20T18:54:14.351Z,3.50
2018-01-20T18:56:42.652Z,3.50
2018-01-20T18:59:12.450Z,3.60
2018-01-20T19:01:40.711Z,3.70
2018-01-20T19:04:09.753Z,3.50
2018-01-20T19:06:38.101Z,3.50
2018-01-20T19:09:06.434Z,3.50
2018-01-20T19:11:36.182Z,3.40
2018-01-20T19:14:04.525Z,3.40
2018-01-20T19:16:34.292Z,3.40
2018-01-20T19:19:04.313Z,3.30
2018-01-20T19:21:32.535Z,3.30
2018-01-20T19:24:01.584Z,3.20
2018-01-20T19:26:29.891Z,3.20
2018-01-20T19:28:58.140Z,3.30
2018-01-20T19:31:26.415Z,3.20
2018-01-20T19:33:54.745Z,3.30
2018-01-20T19:36:24.503Z,3.20
2018-01-20T19:38:52.752Z,3.20
2018-01-20T19:41:21.064Z,3.20
2018-01-20T19:43:49.389Z,3.20
2018-01-20T19:46:18.451Z,3.20
2018-01-20T19:48:46.717Z,3.10
2018-01-20T19:51:14.976Z,3.20
2018-01-20T19:53:43.268Z,3.20
2018-01-20T19:56:11.543Z,3.20
2018-01-20T19:58:39.871Z,3.20
2018-01-20T20:01:08.906Z,3.10
2018-01-20T20:03:37.165Z,3.10
2018-01-20T20:06:06.291Z,2.90
2018-01-20T20:08:34.603Z,2.90
2018-01-20T20:11:02.855Z,2.80
2018-01-20T20:13:31.207Z,2.70
2018-01-20T20:15:59.529Z,2.70
2018-01-20T20:18:27.792Z,2.80
2018-01-20T20:20:56.186Z,3.00
2018-01-20T20:23:24.472Z,3.00
2018-01-20T20:25:52.844Z,3.10
2018-01-20T20:28:21.082Z,3.10
2018-01-20T20:30:49.395Z,3.10
2018-01-20T20:33:17.683Z,3.00
2018-01-20T20:35:45.947Z,2.90
2018-01-20T20:38:14.511Z,2.90
2018-01-20T20:40:42.773Z,2.90
2018-01-20T20:43:12.123Z,2.90
2018-01-20T20:45:41.913Z,2.80
2018-01-20T20:48:10.167Z,2.80
2018-01-20T20:50:38.443Z,2.80
2018-01-20T20:53:07.133Z,2.70
2018-01-20T20:55:35.443Z,2.70
2018-01-20T20:58:03.729Z,2.70
2018-01-20T21:00:32.000Z,2.60
2018-01-20T21:03:00.444Z,2.70
2018-01-20T21:05:28.851Z,2.70
2018-01-20T21:07:57.256Z,2.70
2018-01-20T21:10:25.546Z,2.70
2018-01-20T21:12:54.587Z,2.70
2018-01-20T21:15:22.862Z,2.70
2018-01-20T21:17:51.121Z,2.80
2018-01-20T21:20:20.186Z,2.70
2018-01-20T21:22:48.528Z,2.70
2018-01-20T21:25:16.845Z,2.70
2018-01-20T21:27:46.622Z,2.60
2018-01-20T21:30:14.918Z,2.60
2018-01-20T21:32:43.215Z,2.60
2018-01-20T21:35:11.601Z,2.60
2018-01-20T21:37:40.655Z,2.60
2018-01-20T21:40:09.005Z,2.60
2018-01-20T21:42:38.055Z,2.50
2018-01-20T21:45:07.169Z,2.40
2018-01-20T21:47:36.272Z,2.40
2018-01-20T21:50:05.330Z,2.40
2018-01-20T21:52:33.610Z,2.40
2018-01-20T21:55:01.877Z,2.40
2018-01-20T21:57:30.148Z,2.30
2018-01-20T21:59:58.420Z,2.30
2018-01-20T22:02:26.706Z,2.30
2018-01-20T22:04:54.990Z,2.30
2018-01-20T22:07:23.284Z,2.40
2018-01-20T22:09:51.538Z,2.40
2018-01-20T22:12:19.841Z,2.40
2018-01-20T22:14:48.137Z,2.30
2018-01-20T22:17:18.042Z,2.20
2018-01-20T22:19:46.331Z,2.20
2018-01-20T22:22:14.578Z,2.20
2018-01-20T22:24:42.851Z,2.20
2018-01-20T22:27:11.110Z,2.20
2018-01-20T22:29:39.356Z,2.20
2018-01-20T22:32:07.625Z,2.20
2018-01-20T22:34:36.840Z,2.10
2018-01-20T22:37:05.106Z,2.10
2018-01-20T22:39:33.540Z,2.30
2018-01-20T22:42:01.798Z,2.30
2018-01-20T22:44:30.818Z,2.40
2018-01-20T22:46:59.086Z,2.40
2018-01-20T22:49:27.389Z,2.40
2018-01-20T22:51:55.634Z,2.40
2018-01-20T22:54:23.889Z,2.50
2018-01-20T22:56:52.182Z,2.60
2018-01-20T22:59:20.444Z,2.60
2018-01-20T23:01:49.460Z,2.20
2018-01-20T23:04:17.729Z,2.20
2018-01-20T23:06:45.985Z,2.10
2018-01-20T23:09:14.252Z,1.90
2018-01-20T23:11:42.930Z,1.70
2018-01-20T23:14:11.206Z,1.70
2018-01-20T23:16:40.253Z,1.60
2018-01-20T23:19:08.510Z,1.60
2018-01-20T23:21:36.798Z,1.60
2018-01-20T23:24:05.040Z,1.50
2018-01-20T23:26:33.326Z,1.50
2018-01-20T23:29:01.584Z,1.50
2018-01-20T23:31:29.881Z,1.50
2018-01-20T23:33:58.150Z,1.50
2018-01-20T23:36:26.474Z,1.50
2018-01-20T23:38:54.733Z,1.50
2018-01-20T23:41:23.036Z,1.50
2018-01-20T23:43:51.806Z,1.40
2018-01-20T23:46:20.059Z,1.40
2018-01-20T23:48:48.361Z,1.40
2018-01-20T23:51:16.642Z,1.40
2018-01-20T23:53:44.911Z,1.40
2018-01-20T23:56:13.189Z,1.50
2018-01-20T23:58:41.513Z,1.60
